Time;durP1;ratioP1;P1;durP2;ratioP2;P2;SDS_P1;SDS_P2;PMS_P1;PMS_P2;Temp;Humidity;BMP_temperature;BMP_pressure;BME280_temperature;BME280_humidity;BME280_pressure;Samples;Min_cycle;Max_cycle;Signal;HPM_P1;HPM_P2
2022/05/23 00:00:24;;;;;;;27.60;12.02;;;;;;;16.93;100.00;100424.47;5095956;28;20035;-77
2022/05/23 00:02:50;;;;;;;23.92;11.63;;;;;;;16.88;100.00;100409.25;5096257;28;20032;-77
2022/05/23 00:05:16;;;;;;;20.33;11.27;;;;;;;16.89;100.00;100405.47;5095578;28;20027;-77
2022/05/23 00:07:47;;;;;;;29.23;11.50;;;;;;;16.85;100.00;100392.16;5093408;28;20039;-78
2022/05/23 00:10:15;;;;;;;40.05;11.52;;;;;;;16.87;100.00;100376.25;5092391;28;20463;-77
2022/05/23 00:12:41;;;;;;;29.77;11.85;;;;;;;16.85;100.00;100367.25;5112148;28;20114;-77
2022/05/23 00:15:09;;;;;;;28.40;11.57;;;;;;;16.81;100.00;100357.56;5095470;28;20039;-77
2022/05/23 00:17:35;;;;;;;26.92;11.05;;;;;;;16.79;100.00;100356.84;5097261;28;20142;-77
2022/05/23 00:20:03;;;;;;;27.75;10.93;;;;;;;16.80;100.00;100351.16;5071489;28;20039;-78
2022/05/23 00:22:31;;;;;;;28.92;11.55;;;;;;;16.87;100.00;100351.34;5093534;28;20051;-77
2022/05/23 00:24:58;;;;;;;25.63;11.40;;;;;;;16.83;100.00;100345.28;5079679;28;20755;-78
2022/05/23 00:27:23;;;;;;;35.22;11.50;;;;;;;16.81;100.00;100338.22;5097739;28;20502;-79
2022/05/23 00:29:50;;;;;;;24.35;10.90;;;;;;;16.82;100.00;100339.91;5078210;28;20070;-76
2022/05/23 00:35:18;;;;;;;27.33;10.35;;;;;;;16.84;100.00;100343.38;5085914;28;20039;-76
2022/05/23 00:37:45;;;;;;;23.80;9.90;;;;;;;16.86;100.00;100346.88;5050310;28;20479;-77
2022/05/23 00:40:23;;;;;;;32.60;10.25;;;;;;;16.87;100.00;100345.81;5090649;28;20123;-77
2022/05/23 00:45:34;;;;;;;22.00;11.38;;;;;;;16.86;100.00;100333.06;5094910;28;20502;-77
2022/05/23 00:48:01;;;;;;;22.20;9.18;;;;;;;16.79;100.00;100320.91;5067267;28;20118;-76
2022/05/23 00:50:28;;;;;;;25.90;10.88;;;;;;;16.83;100.00;100328.69;5084878;28;20042;-77
2022/05/23 00:52:57;;;;;;;29.20;10.07;;;;;;;16.88;100.00;100323.53;5119539;28;20055;-76
2022/05/23 00:55:32;;;;;;;27.52;10.45;;;;;;;16.86;100.00;100317.31;5103179;28;20043;-78
2022/05/23 00:58:06;;;;;;;20.00;9.77;;;;;;;16.90;100.00;100328.88;5126164;28;20103;-77
2022/05/23 01:00:33;;;;;;;20.65;9.60;;;;;;;16.81;100.00;100319.72;5115317;28;20092;-77
2022/05/23 01:03:05;;;;;;;28.77;10.10;;;;;;;16.88;100.00;100323.53;5102546;28;20036;-77
2022/05/23 01:05:33;;;;;;;19.42;9.88;;;;;;;16.79;100.00;100323.69;5099744;28;20639;-78
2022/05/23 01:07:59;;;;;;;26.00;10.00;;;;;;;16.76;100.00;100329.56;5089995;28;20039;-77
2022/05/23 01:10:25;;;;;;;24.23;10.20;;;;;;;16.81;100.00;100327.16;5104858;28;20043;-76
2022/05/23 01:12:51;;;;;;;25.95;9.65;;;;;;;16.79;100.00;100324.56;5060835;28;20036;-77
2022/05/23 01:15:22;;;;;;;23.75;10.45;;;;;;;16.80;100.00;100344.78;5083689;28;20020;-77
2022/05/23 01:17:48;;;;;;;22.00;10.02;;;;;;;16.79;100.00;100345.81;5101599;28;20032;-77
2022/05/23 01:20:14;;;;;;;22.23;9.80;;;;;;;16.87;100.00;100349.47;5100757;28;20040;-77
2022/05/23 01:22:59;;;;;;;22.95;9.35;;;;;;;16.94;100.00;100351.50;5079873;28;20032;-77
2022/05/23 01:25:42;;;;;;;25.02;10.43;;;;;;;16.88;100.00;100351.19;5101057;28;20467;-77
2022/05/23 01:28:11;;;;;;;28.00;10.18;;;;;;;16.86;100.00;100353.25;5095693;28;20038;-77
2022/05/23 01:30:40;;;;;;;22.60;9.45;;;;;;;16.89;100.00;100343.75;5099379;28;20063;-77
2022/05/23 01:33:06;;;;;;;22.75;9.60;;;;;;;16.89;100.00;100341.00;5100041;28;20028;-77
2022/05/23 01:35:32;;;;;;;24.35;10.27;;;;;;;16.87;100.00;100334.75;5080776;28;20063;-77
2022/05/23 01:37:57;;;;;;;19.45;9.82;;;;;;;16.75;100.00;100331.47;5100911;28;20043;-77
2022/05/23 01:40:23;;;;;;;22.27;10.38;;;;;;;16.77;100.00;100326.63;5117877;28;20122;-77
2022/05/23 01:42:49;;;;;;;28.55;10.25;;;;;;;16.74;100.00;100318.66;5120164;28;20054;-78
2022/05/23 01:45:18;;;;;;;22.00;10.00;;;;;;;16.79;100.00;100316.28;5084566;28;20039;-77
2022/05/23 01:47:45;;;;;;;24.40;10.65;;;;;;;16.65;100.00;100323.34;5086139;28;20049;-78
2022/05/23 01:50:11;;;;;;;30.35;10.07;;;;;;;16.68;100.00;100319.41;5086785;28;20552;-76
2022/05/23 01:52:38;;;;;;;31.58;11.20;;;;;;;16.65;100.00;100325.28;5097255;28;20028;-77
2022/05/23 01:55:04;;;;;;;27.90;11.70;;;;;;;16.47;100.00;100322.69;5097287;28;20043;-77
2022/05/23 01:57:31;;;;;;;18.42;11.15;;;;;;;16.48;100.00;100330.81;5080280;28;20036;-77
2022/05/23 02:02:44;;;;;;;27.70;11.05;;;;;;;16.41;100.00;100328.91;5091598;28;20039;-77
2022/05/23 02:05:10;;;;;;;24.08;10.73;;;;;;;16.44;100.00;100317.50;5079582;28;20044;-76
2022/05/23 02:07:35;;;;;;;25.75;10.43;;;;;;;16.47;100.00;100323.53;5064791;28;20043;-77
2022/05/23 02:10:01;;;;;;;29.08;11.30;;;;;;;16.46;100.00;100326.47;5101906;28;20049;-78
2022/05/23 02:12:27;;;;;;;24.02;10.85;;;;;;;16.46;100.00;100324.59;5080521;28;20487;-77
2022/05/23 02:14:52;;;;;;;29.05;12.20;;;;;;;16.45;100.00;100317.34;5073440;28;20043;-77
2022/05/23 02:17:18;;;;;;;23.88;10.70;;;;;;;16.36;100.00;100323.88;5080522;28;20056;-78
2022/05/23 02:19:44;;;;;;;25.80;11.98;;;;;;;16.35;100.00;100323.03;5065286;28;20071;-77
2022/05/23 02:22:09;;;;;;;26.95;11.57;;;;;;;16.32;100.00;100325.28;5101790;28;20036;-78
2022/05/23 02:24:35;;;;;;;27.83;11.35;;;;;;;16.28;100.00;100324.78;5084321;28;20391;-77
2022/05/23 02:27:00;;;;;;;21.33;10.27;;;;;;;16.30;100.00;100316.31;5077934;28;20044;-77
2022/05/23 02:29:26;;;;;;;19.67;10.15;;;;;;;16.40;100.00;100313.34;5077953;28;20041;-77
2022/05/23 02:31:52;;;;;;;26.73;11.27;;;;;;;16.34;100.00;100304.72;5063639;28;20032;-77
2022/05/23 02:34:18;;;;;;;25.95;10.57;;;;;;;16.37;100.00;100297.13;5094436;28;20425;-77
2022/05/23 02:36:45;;;;;;;21.25;9.95;;;;;;;16.44;100.00;100300.91;5096881;28;20020;-77
2022/05/23 02:39:11;;;;;;;21.55;10.85;;;;;;;16.45;100.00;100302.66;5113637;28;20040;-77
2022/05/23 02:41:37;;;;;;;22.35;10.52;;;;;;;16.25;100.00;100291.97;5098176;28;20036;-77
2022/05/23 02:44:03;;;;;;;20.35;10.48;;;;;;;16.16;100.00;100296.59;5081310;28;20047;-77
2022/05/23 02:46:29;;;;;;;19.75;10.95;;;;;;;16.12;100.00;100295.22;5081205;28;20028;-77
2022/05/23 02:48:55;;;;;;;22.75;11.13;;;;;;;16.20;100.00;100296.25;5066531;28;20382;-77
2022/05/23 02:51:22;;;;;;;22.40;10.38;;;;;;;16.15;100.00;100283.84;5100082;28;20027;-77
2022/05/23 02:53:48;;;;;;;22.60;9.90;;;;;;;16.15;100.00;100281.06;5113157;28;20035;-77
2022/05/23 02:56:15;;;;;;;21.63;11.25;;;;;;;16.16;100.00;100281.94;5119610;28;20044;-77
2022/05/23 02:58:40;;;;;;;18.80;10.75;;;;;;;15.88;100.00;100279.50;5065476;28;20036;-77
2022/05/23 03:01:06;;;;;;;18.95;11.48;;;;;;;15.90;100.00;100263.59;5078535;28;20525;-77
2022/05/23 03:03:33;;;;;;;26.15;11.05;;;;;;;15.93;100.00;100259.66;5082845;28;20032;-77
2022/05/23 03:05:59;;;;;;;25.02;11.20;;;;;;;15.91;100.00;100248.78;5118063;28;20560;-77
2022/05/23 03:08:27;;;;;;;29.63;10.60;;;;;;;15.96;100.00;100243.59;5098680;28;20035;-76
2022/05/23 03:11:00;;;;;;;19.70;10.75;;;;;;;15.96;100.00;100235.31;5097557;28;20042;-77
2022/05/23 03:13:26;;;;;;;27.17;11.43;;;;;;;15.98;100.00;100232.38;5079887;28;20110;-77
2022/05/23 03:15:52;;;;;;;24.67;11.80;;;;;;;15.92;100.00;100224.78;5100963;28;20403;-77
2022/05/23 03:18:19;;;;;;;26.58;11.35;;;;;;;15.83;100.00;100212.88;5085131;28;20055;-78
2022/05/23 03:20:46;;;;;;;29.08;12.93;;;;;;;15.74;100.00;100206.47;5084326;28;20036;-78
2022/05/23 03:28:42;;;;;;;25.27;12.10;;;;;;;15.69;100.00;100200.59;5118537;28;20080;-78
2022/05/23 03:31:08;;;;;;;28.75;12.90;;;;;;;15.60;100.00;100202.47;5081649;28;20048;-77
2022/05/23 03:33:34;;;;;;;29.15;13.95;;;;;;;15.63;100.00;100201.28;5091424;28;20501;-77
2022/05/23 03:36:00;;;;;;;27.27;13.15;;;;;;;15.69;100.00;100194.19;5104864;28;20040;-78
2022/05/23 03:38:27;;;;;;;25.50;13.18;;;;;;;15.63;100.00;100182.81;5086750;28;20367;-78
2022/05/23 03:40:52;;;;;;;22.92;12.90;;;;;;;15.60;100.00;100176.78;5081598;28;20097;-77
2022/05/23 03:43:19;;;;;;;28.80;13.50;;;;;;;15.54;100.00;100164.53;5100560;28;20418;-77
2022/05/23 03:45:46;;;;;;;26.35;13.43;;;;;;;15.52;100.00;100157.47;5050380;28;20180;-77
2022/05/23 03:48:12;;;;;;;29.38;12.52;;;;;;;15.43;100.00;100146.41;5118825;28;20046;-77
2022/05/23 03:50:39;;;;;;;24.27;13.70;;;;;;;15.21;100.00;100147.91;5081886;28;20051;-77
2022/05/23 03:53:05;;;;;;;25.58;13.27;;;;;;;15.20;100.00;100146.22;5097485;28;20036;-78
2022/05/23 03:55:31;;;;;;;25.15;13.70;;;;;;;15.12;100.00;100157.22;5063620;28;20440;-79
2022/05/23 03:57:57;;;;;;;27.35;13.13;;;;;;;15.12;100.00;100148.97;5081543;28;20024;-77
2022/05/23 04:00:23;;;;;;;20.15;12.52;;;;;;;15.17;100.00;100140.19;5097920;28;20080;-77
2022/05/23 04:02:49;;;;;;;29.90;13.05;;;;;;;15.28;100.00;100147.25;5098301;28;20023;-78
2022/05/23 04:05:16;;;;;;;31.67;12.98;;;;;;;15.18;100.00;100134.50;5098365;28;20043;-77
2022/05/23 04:07:44;;;;;;;33.55;12.35;;;;;;;15.22;100.00;100140.53;5099349;28;20043;-77
2022/05/23 04:10:16;;;;;;;16.75;11.73;;;;;;;15.27;100.00;100143.63;5061313;28;20032;-79
2022/05/23 04:12:46;;;;;;;21.83;11.70;;;;;;;15.34;100.00;100143.81;5080569;28;20031;-80
2022/05/23 04:15:12;;;;;;;20.38;11.88;;;;;;;15.26;100.00;100144.66;5098841;28;20035;-78
2022/05/23 04:17:38;;;;;;;24.80;11.65;;;;;;;15.29;100.00;100149.84;5079939;28;20039;-77
2022/05/23 04:20:05;;;;;;;27.95;12.48;;;;;;;15.34;100.00;100143.81;5083405;28;20035;-78
2022/05/23 04:22:30;;;;;;;21.85;12.07;;;;;;;15.46;100.00;100138.81;5083611;28;20027;-78
2022/05/23 04:24:56;;;;;;;27.40;11.38;;;;;;;15.49;100.00;100131.06;5118343;28;20126;-78
2022/05/23 04:27:21;;;;;;;24.80;11.73;;;;;;;15.50;100.00;100124.53;5101778;28;20031;-78
2022/05/23 04:29:47;;;;;;;22.15;11.10;;;;;;;15.68;100.00;100118.84;5081913;28;20032;-77
2022/05/23 04:35:13;;;;;;;29.48;11.38;;;;;;;15.70;100.00;100119.50;5101343;28;20039;-79
2022/05/23 04:37:40;;;;;;;23.05;11.52;;;;;;;15.67;100.00;100111.56;5089167;28;20028;-79
2022/05/23 04:40:06;;;;;;;20.38;12.07;;;;;;;15.83;100.00;100102.47;5115334;28;20118;-77
2022/05/23 04:42:32;;;;;;;23.67;10.90;;;;;;;15.86;100.00;100115.06;5099813;28;20436;-77
2022/05/23 04:44:57;;;;;;;25.00;12.32;;;;;;;15.80;100.00;100102.81;5093599;28;20079;-77
2022/05/23 04:50:09;;;;;;;21.77;11.25;;;;;;;15.94;100.00;100110.38;5082317;28;20047;-79
2022/05/23 04:52:35;;;;;;;23.95;12.98;;;;;;;15.89;100.00;100095.38;5087342;27;20062;-78
2022/05/23 04:55:00;;;;;;;23.73;12.65;;;;;;;16.08;100.00;100092.22;5077351;27;20522;-78
2022/05/23 04:57:26;;;;;;;32.22;12.63;;;;;;;16.14;100.00;100088.75;5084529;28;20370;-77
2022/05/23 04:59:51;;;;;;;22.70;13.75;;;;;;;16.11;100.00;100097.41;5070908;28;20461;-77
2022/05/23 05:02:17;;;;;;;26.52;14.18;;;;;;;16.15;100.00;100101.53;5068244;28;20454;-78
2022/05/23 05:04:42;;;;;;;23.00;13.85;;;;;;;16.25;100.00;100097.69;5098932;28;20463;-78
2022/05/23 05:07:08;;;;;;;24.73;15.38;;;;;;;16.33;100.00;100078.34;5082998;28;20100;-79
2022/05/23 05:09:34;;;;;;;27.60;14.82;;;;;;;16.42;100.00;100081.94;5082020;28;20036;-78
2022/05/23 05:12:00;;;;;;;20.95;14.15;;;;;;;16.58;100.00;100081.00;5107481;28;20035;-77
2022/05/23 05:14:27;;;;;;;22.63;13.35;;;;;;;16.59;100.00;100089.09;5118932;28;20091;-79
2022/05/23 05:16:53;;;;;;;20.98;11.43;;;;;;;16.68;100.00;100088.03;5074696;28;20497;-77
2022/05/23 05:19:19;;;;;;;20.83;10.98;;;;;;;16.65;100.00;100079.25;5097099;28;20083;-78
2022/05/23 05:21:46;;;;;;;20.05;10.38;;;;;;;16.78;100.00;100074.00;5065859;28;20044;-79
2022/05/23 05:24:12;;;;;;;21.25;11.27;;;;;;;16.70;100.00;100063.84;5117206;28;20597;-78
2022/05/23 05:26:37;;;;;;;16.70;9.90;;;;;;;16.82;100.00;100047.72;5118442;28;20031;-78
2022/05/23 05:29:04;;;;;;;16.27;9.52;;;;;;;16.85;100.00;100036.31;5100291;28;20044;-79
2022/05/23 05:32:04;;;;;;;20.23;10.23;;;;;;;16.75;100.00;100027.34;5106261;28;20032;-78
2022/05/23 05:34:36;;;;;;;19.58;10.60;;;;;;;16.94;100.00;100030.72;5090056;28;20028;-78
2022/05/23 05:37:07;;;;;;;16.95;9.70;;;;;;;17.02;100.00;100033.41;5099308;28;20038;-78
2022/05/23 05:39:36;;;;;;;16.38;10.27;;;;;;;16.86;100.00;100031.66;5087296;28;20456;-78
2022/05/23 05:42:32;;;;;;;17.50;10.02;;;;;;;17.01;100.00;100035.34;5077099;28;20040;-78
2022/05/23 05:45:11;;;;;;;16.42;9.73;;;;;;;17.08;100.00;100041.84;5090291;28;20048;-77
2022/05/23 05:47:40;;;;;;;15.30;9.38;;;;;;;17.09;100.00;100035.28;5116473;28;20420;-77
2022/05/23 05:50:11;;;;;;;16.95;9.77;;;;;;;16.97;100.00;100042.28;5099039;28;20051;-77
2022/05/23 05:52:38;;;;;;;23.30;9.85;;;;;;;17.02;100.00;100039.84;5104610;28;20039;-77
2022/05/23 05:55:07;;;;;;;14.82;9.65;;;;;;;17.18;100.00;100025.00;5111886;28;20071;-77
2022/05/23 05:57:33;;;;;;;16.48;8.98;;;;;;;17.17;100.00;100027.97;5087087;28;20039;-77
2022/05/23 05:59:59;;;;;;;14.77;8.00;;;;;;;17.43;100.00;100028.44;5077095;28;20040;-77
2022/05/23 06:02:24;;;;;;;14.63;8.05;;;;;;;17.36;100.00;100018.28;5106053;27;20569;-77
2022/05/23 06:04:50;;;;;;;22.02;9.02;;;;;;;17.56;100.00;100018.63;5080122;28;20031;-77
2022/05/23 06:12:54;;;;;;;16.90;8.00;;;;;;;18.19;100.00;99999.78;5099446;28;20070;-78
2022/05/23 06:15:21;;;;;;;20.15;7.70;;;;;;;18.33;100.00;99993.38;5081133;28;20027;-78
2022/05/23 06:17:46;;;;;;;14.13;6.95;;;;;;;18.50;100.00;99996.78;5081405;28;20047;-80
2022/05/23 06:20:14;;;;;;;12.75;7.65;;;;;;;18.41;100.00;100000.69;5064865;28;20434;-77
2022/05/23 06:22:40;;;;;;;22.90;8.02;;;;;;;18.37;100.00;99977.22;5116147;28;20069;-77
2022/05/23 06:25:08;;;;;;;11.75;7.57;;;;;;;18.45;100.00;99977.09;5098059;28;20035;-78
2022/05/23 06:27:34;;;;;;;12.32;6.90;;;;;;;18.66;97.31;99973.50;5081630;28;20064;-78
2022/05/23 06:29:59;;;;;;;13.30;6.93;;;;;;;18.51;99.45;99956.91;5071357;28;20398;-77
2022/05/23 06:32:25;;;;;;;13.10;6.65;;;;;;;18.45;98.87;99960.47;5101382;28;20127;-78
2022/05/23 06:34:51;;;;;;;10.80;6.60;;;;;;;18.70;98.16;99965.66;5079243;27;20031;-78
2022/05/23 06:37:16;;;;;;;19.95;6.50;;;;;;;18.77;95.27;99968.47;5077585;28;20045;-78
2022/05/23 06:39:42;;;;;;;11.60;5.95;;;;;;;18.50;97.00;99960.72;5104063;28;20032;-77
2022/05/23 06:42:08;;;;;;;14.32;5.65;;;;;;;18.79;96.50;99956.16;5089867;28;20039;-77
2022/05/23 06:44:34;;;;;;;12.15;5.43;;;;;;;18.88;94.34;99959.69;5061436;28;20063;-77
2022/05/23 06:47:00;;;;;;;19.27;5.32;;;;;;;18.89;93.52;99953.94;5114277;28;20142;-78
2022/05/23 06:49:26;;;;;;;11.48;5.55;;;;;;;18.90;95.16;99957.56;5081217;28;20077;-78
2022/05/23 06:51:52;;;;;;;13.18;6.15;;;;;;;19.20;93.63;99958.28;5116119;28;20028;-78
2022/05/23 06:54:20;;;;;;;12.65;5.72;;;;;;;19.07;95.63;99960.91;5062467;28;20494;-78
2022/05/23 06:56:48;;;;;;;17.30;5.57;;;;;;;19.16;92.89;99962.50;5096808;27;20030;-77
2022/05/23 06:59:15;;;;;;;13.93;6.30;;;;;;;19.35;90.81;99968.41;5094191;28;20063;-77
2022/05/23 07:01:41;;;;;;;12.35;5.38;;;;;;;19.21;90.61;99971.06;5093541;28;20034;-77
2022/05/23 07:04:07;;;;;;;15.82;5.70;;;;;;;18.86;93.14;99970.97;5094219;28;20067;-78
2022/05/23 07:14:39;;;;;;;12.73;5.40;;;;;;;18.63;95.14;99961.94;5110638;28;20068;-78
2022/05/23 07:17:05;;;;;;;10.35;5.13;;;;;;;18.75;94.60;99968.69;5097142;28;20487;-77
2022/05/23 07:19:31;;;;;;;14.02;5.78;;;;;;;18.86;93.15;99965.41;5072411;28;20069;-78
2022/05/23 07:21:59;;;;;;;14.60;5.43;;;;;;;18.67;93.30;99963.25;5092253;28;20092;-78
2022/05/23 07:24:26;;;;;;;19.15;5.75;;;;;;;18.57;96.18;99960.81;5095889;28;20074;-78
2022/05/23 07:26:54;;;;;;;12.48;5.43;;;;;;;18.54;96.79;99955.66;5095472;28;20072;-77
2022/05/23 07:29:22;;;;;;;12.88;5.15;;;;;;;18.68;95.52;99959.44;5096853;28;20055;-77
2022/05/23 07:31:48;;;;;;;17.67;5.30;;;;;;;18.47;96.15;99951.94;5096839;28;20043;-77
2022/05/23 07:34:14;;;;;;;12.25;5.43;;;;;;;18.58;95.30;99948.66;5101239;28;20051;-77
2022/05/23 07:36:39;;;;;;;12.88;4.85;;;;;;;18.52;95.41;99946.69;5097286;27;20114;-78
2022/05/23 07:39:08;;;;;;;11.27;4.82;;;;;;;18.46;96.77;99940.00;5076149;28;20032;-79
2022/05/23 07:41:34;;;;;;;17.40;5.10;;;;;;;18.74;95.80;99947.53;5076404;28;20050;-77
2022/05/23 07:44:00;;;;;;;10.13;5.63;;;;;;;18.67;95.47;99952.16;5116937;28;20031;-78
2022/05/23 07:46:26;;;;;;;11.57;5.80;;;;;;;18.66;96.59;99943.00;5108172;28;20035;-77
2022/05/23 07:48:52;;;;;;;15.55;4.80;;;;;;;18.70;94.98;99930.44;5064085;28;20387;-78
2022/05/23 07:51:21;;;;;;;12.25;5.60;;;;;;;18.91;93.98;99926.84;5115632;28;20035;-78
2022/05/23 08:02:04;;;;;;;14.07;4.63;;;;;;;19.21;94.22;99946.09;5116493;28;20047;-78
2022/05/23 08:04:30;;;;;;;13.13;5.38;;;;;;;19.16;92.71;99934.75;5067647;28;20914;-79
2022/05/23 08:06:57;;;;;;;14.63;4.53;;;;;;;19.45;92.22;99933.69;5115398;28;20020;-78
2022/05/23 08:09:22;;;;;;;12.73;4.60;;;;;;;19.53;90.70;99924.34;5098184;28;20047;-78
2022/05/23 08:11:53;;;;;;;13.82;4.93;;;;;;;19.74;90.98;99917.88;5099308;28;20028;-79
2022/05/23 08:14:20;;;;;;;18.27;5.35;;;;;;;19.93;89.47;99916.28;5114623;28;20059;-78
2022/05/23 08:16:47;;;;;;;12.50;4.75;;;;;;;20.00;89.27;99919.97;5099797;28;20032;-79
2022/05/23 08:19:12;;;;;;;17.60;5.28;;;;;;;20.14;88.66;99918.09;5075205;28;20028;-77
2022/05/23 08:21:46;;;;;;;13.85;5.50;;;;;;;20.32;86.38;99906.41;5057318;28;20047;-77
2022/05/23 08:24:11;;;;;;;11.93;4.88;;;;;;;20.16;87.06;99903.97;5115093;28;20119;-78
2022/05/23 08:26:37;;;;;;;14.20;5.18;;;;;;;20.20;87.77;99895.03;5095684;28;20099;-77
2022/05/23 08:29:02;;;;;;;10.88;5.70;;;;;;;20.75;85.38;99900.53;5070394;28;20118;-78
2022/05/23 08:31:28;;;;;;;13.88;5.40;;;;;;;20.52;85.01;99898.09;5094581;28;20114;-78
2022/05/23 08:33:53;;;;;;;24.77;5.32;;;;;;;20.40;86.24;99894.22;5078162;28;20043;-77
2022/05/23 08:36:19;;;;;;;21.88;5.45;;;;;;;20.35;87.02;99889.28;5076395;28;20031;-77
2022/05/23 08:38:44;;;;;;;18.25;6.03;;;;;;;20.60;86.67;99883.16;5098773;28;20031;-77
2022/05/23 08:41:18;;;;;;;11.88;5.65;;;;;;;20.39;85.56;99876.66;5078925;28;20039;-77
2022/05/23 08:44:02;;;;;;;20.08;5.95;;;;;;;20.96;83.61;99870.81;5079879;28;20035;-79
2022/05/23 08:46:49;;;;;;;22.38;5.50;;;;;;;20.64;84.90;99883.59;5092428;28;20020;-78
2022/05/23 08:49:21;;;;;;;15.68;5.28;;;;;;;20.36;86.10;99882.66;5079598;28;20047;-78
2022/05/23 08:52:26;;;;;;;16.60;6.30;;;;;;;20.50;86.94;99874.38;5112088;28;20031;-78
2022/05/23 08:55:04;;;;;;;19.83;5.68;;;;;;;20.75;86.25;99867.13;5063068;28;20100;-78
2022/05/23 08:58:07;;;;;;;11.95;5.50;;;;;;;20.75;88.03;99869.91;5097007;28;20030;-77
2022/05/23 09:00:46;;;;;;;13.93;5.50;;;;;;;20.68;85.60;99871.84;5095657;28;20054;-79
2022/05/23 09:03:28;;;;;;;16.10;5.53;;;;;;;20.61;87.17;99857.06;5091499;28;20379;-77
2022/05/23 09:06:26;;;;;;;15.73;6.15;;;;;;;20.90;84.62;99855.78;5099373;28;20141;-78
2022/05/23 09:08:57;;;;;;;11.70;5.32;;;;;;;20.69;88.23;99854.09;5095908;28;20375;-78
2022/05/23 09:12:01;;;;;;;17.17;5.10;;;;;;;20.68;88.02;99840.41;5099513;28;20056;-78
2022/05/23 09:14:27;;;;;;;11.35;5.65;;;;;;;20.64;86.91;99839.94;5083124;28;20036;-79
2022/05/23 09:16:54;;;;;;;17.10;6.03;;;;;;;20.63;85.73;99842.91;5101394;28;20027;-78
2022/05/23 09:19:34;;;;;;;12.20;5.38;;;;;;;20.43;88.15;99832.63;5091836;28;20035;-78
2022/05/23 09:22:24;;;;;;;15.02;5.50;;;;;;;20.51;88.38;99828.78;5104112;28;20040;-77
2022/05/23 09:24:58;;;;;;;24.55;5.75;;;;;;;20.53;88.60;99815.53;5091990;28;20113;-79
2022/05/23 09:27:27;;;;;;;19.95;5.32;;;;;;;20.59;88.06;99805.47;5097606;28;20042;-77
2022/05/23 09:29:55;;;;;;;16.67;6.15;;;;;;;20.63;86.92;99802.09;5108193;28;20020;-78
2022/05/23 09:32:34;;;;;;;18.55;6.75;;;;;;;20.61;87.64;99790.31;5114108;27;20035;-79
2022/05/23 09:35:02;;;;;;;24.23;6.53;;;;;;;20.55;88.43;99785.59;5097910;27;20035;-78
2022/05/23 09:37:44;;;;;;;18.30;6.63;;;;;;;20.38;88.17;99788.78;5091030;28;20027;-77
2022/05/23 09:40:32;;;;;;;22.98;6.03;;;;;;;20.47;88.34;99788.56;5114302;28;21715;-77
2022/05/23 09:49:02;;;;;;;23.35;6.07;;;;;;;20.50;93.96;99746.44;5112022;27;20571;-78
2022/05/23 09:51:28;;;;;;;11.00;5.30;;;;;;;20.56;89.77;99743.66;5116186;28;20527;-78
2022/05/23 09:53:54;;;;;;;11.20;6.50;;;;;;;20.83;88.30;99749.22;5098633;28;20039;-78
2022/05/23 09:56:35;;;;;;;14.25;5.93;;;;;;;20.97;88.89;99761.16;5061072;28;20050;-78
2022/05/23 09:59:06;;;;;;;13.90;6.10;;;;;;;21.28;85.43;99766.03;5095765;28;20114;-78
2022/05/23 10:01:33;;;;;;;17.05;5.43;;;;;;;21.55;83.06;99765.97;5099757;28;20121;-78
2022/05/23 10:04:00;;;;;;;14.75;5.40;;;;;;;21.53;84.67;99761.69;5100486;28;20035;-78
2022/05/23 10:06:40;;;;;;;10.90;5.20;;;;;;;21.88;82.25;99748.25;5100374;28;20474;-79
2022/05/23 10:09:23;;;;;;;21.88;5.72;;;;;;;21.83;82.65;99737.75;5087703;28;20043;-78
2022/05/23 10:11:59;;;;;;;13.00;5.13;;;;;;;22.63;80.95;99730.78;5125470;27;20023;-77
2022/05/23 10:14:36;;;;;;;15.95;5.47;;;;;;;23.06;78.97;99734.66;5093816;28;20131;-77
2022/05/23 10:17:01;;;;;;;15.13;5.20;;;;;;;23.82;76.18;99726.84;5083930;28;20371;-77
2022/05/23 10:19:33;;;;;;;16.77;4.82;;;;;;;24.22;71.33;99717.91;5097826;28;20036;-78
2022/05/23 10:22:06;;;;;;;13.65;3.80;;;;;;;23.47;72.30;99730.31;5095270;28;20486;-77
2022/05/23 10:24:35;;;;;;;12.40;4.07;;;;;;;23.77;72.37;99735.94;5097108;28;20116;-79
2022/05/23 10:27:06;;;;;;;10.85;3.45;;;;;;;24.01;67.92;99733.28;5095558;28;20121;-78
2022/05/23 10:29:53;;;;;;;13.30;3.50;;;;;;;24.25;67.78;99723.00;5109952;28;20054;-78
2022/05/23 10:32:32;;;;;;;14.27;4.03;;;;;;;24.03;68.40;99725.50;5097538;28;20027;-77
2022/05/23 10:35:09;;;;;;;15.02;4.90;;;;;;;24.15;69.43;99726.41;5097125;28;20087;-77
2022/05/23 10:37:36;;;;;;;14.10;5.15;;;;;;;24.30;67.85;99711.97;5096980;28;20123;-77
2022/05/23 10:42:57;;;;;;;10.38;4.82;;;;;;;24.20;69.02;99701.38;5095141;28;20054;-78
2022/05/23 10:45:33;;;;;;;15.82;5.45;;;;;;;24.36;69.21;99701.75;5095878;28;20035;-77
2022/05/23 10:48:22;;;;;;;20.90;5.05;;;;;;;24.38;66.11;99705.16;5094027;28;20094;-78
2022/05/23 10:51:43;;;;;;;11.85;3.95;;;;;;;24.87;67.72;99693.75;5078101;28;20040;-78
2022/05/23 10:54:21;;;;;;;13.15;4.20;;;;;;;24.93;63.75;99681.59;4978145;28;20042;-78
2022/05/23 10:57:10;;;;;;;17.30;3.60;;;;;;;24.69;63.64;99670.38;5103086;28;20052;-79
2022/05/23 10:59:54;;;;;;;11.95;4.25;;;;;;;24.91;62.80;99669.78;5093678;28;20032;-77
2022/05/23 11:02:25;;;;;;;15.93;4.82;;;;;;;25.09;66.59;99657.59;5095990;28;20042;-78
2022/05/23 11:05:05;;;;;;;10.25;3.47;;;;;;;25.61;62.86;99651.09;5101638;28;20023;-77
2022/05/23 11:08:08;;;;;;;12.57;4.60;;;;;;;25.50;59.52;99656.50;5113650;28;20039;-77
2022/05/23 11:10:52;;;;;;;6.82;3.70;;;;;;;25.29;62.75;99632.81;5076626;28;20058;-77
2022/05/23 11:13:56;;;;;;;20.63;4.45;;;;;;;25.31;61.43;99619.41;5110410;28;20039;-77
2022/05/23 11:16:34;;;;;;;15.50;4.90;;;;;;;24.99;59.85;99621.81;5099833;28;20501;-78
2022/05/23 11:19:10;;;;;;;11.27;4.90;;;;;;;24.89;61.45;99624.34;5108103;28;20036;-78
2022/05/23 11:22:16;;;;;;;13.77;5.32;;;;;;;25.08;62.94;99609.09;5078079;28;20031;-77
2022/05/23 11:25:23;;;;;;;11.52;4.05;;;;;;;25.48;60.88;99597.03;5080452;28;20031;-77
2022/05/23 11:34:23;;;;;;;13.50;4.55;;;;;;;24.90;63.54;99573.69;5107433;27;20413;-76
2022/05/23 11:37:42;;;;;;;20.15;4.40;;;;;;;24.58;63.28;99576.09;5074496;28;20043;-78
2022/05/23 11:40:01;;;;;;;27.77;4.82;;;;;;;24.65;64.41;99570.38;5091592;28;20032;-77
2022/05/23 11:42:31;;;;;;;16.55;4.80;;;;;;;24.73;64.52;99556.00;5083721;28;20051;-77
2022/05/23 11:47:59;;;;;;;13.13;5.30;;;;;;;24.59;63.70;99547.84;5089752;28;20048;-76
2022/05/23 11:50:47;;;;;;;20.33;5.10;;;;;;;24.39;65.27;99550.16;5060388;28;20041;-78
2022/05/23 11:53:27;;;;;;;13.15;4.25;;;;;;;24.57;65.16;99541.66;5054791;28;20079;-78
2022/05/23 11:55:55;;;;;;;12.95;4.13;;;;;;;24.81;61.77;99541.59;5064122;28;20040;-77
2022/05/23 11:58:36;;;;;;;22.85;4.38;;;;;;;24.69;61.80;99537.97;5085910;28;20032;-77
2022/05/23 12:01:20;;;;;;;14.02;4.25;;;;;;;24.76;63.01;99536.75;5074791;28;20062;-77
2022/05/23 12:03:52;;;;;;;11.73;3.90;;;;;;;24.71;63.77;99525.44;5064978;28;20429;-78
2022/05/23 12:06:24;;;;;;;8.07;3.83;;;;;;;25.05;60.50;99530.31;5072160;28;20387;-78
2022/05/23 12:08:59;;;;;;;8.18;3.97;;;;;;;24.67;62.07;99537.38;5081313;28;20036;-78
2022/05/23 12:11:36;;;;;;;9.48;4.10;;;;;;;24.70;62.03;99532.13;5064721;28;20041;-78
2022/05/23 12:14:41;;;;;;;9.70;4.70;;;;;;;24.78;61.68;99519.69;5056720;28;20040;-77
2022/05/23 12:17:12;;;;;;;17.52;4.38;;;;;;;25.24;60.60;99520.59;5067656;28;20046;-77
2022/05/23 12:19:41;;;;;;;9.23;4.20;;;;;;;24.99;61.78;99520.09;5067035;28;20186;-77
2022/05/23 12:22:32;;;;;;;16.08;4.30;;;;;;;25.27;59.87;99516.50;5079690;28;20036;-78
2022/05/23 12:25:07;;;;;;;13.73;3.95;;;;;;;25.53;59.81;99525.34;5054766;28;20029;-78
2022/05/23 12:27:58;;;;;;;15.93;4.20;;;;;;;25.29;60.51;99517.94;5075704;28;20047;-79
2022/05/23 12:30:27;;;;;;;12.20;3.55;;;;;;;25.80;57.83;99509.56;5071503;28;20202;-78